Terminal Aerodrome Forecast
Issued by NWS Topeka, KS

Home | Current Version | Previous Version | Text Only | Print | Product List | Glossary Off
Versions: 1 2 3 4 5 6 7 8 9 10 11 12 13 14 15 16

000
FTUS43 KTOP 211700
TAFTOP
TAF
KTOP 211720Z 2118/2218 34012G19KT P6SM SKC
     FM212300 VRB03KT P6SM SKC
     FM221000 00000KT 5SM BR SKC
     FM221200 05004KT P6SM SKC=

USA.gov is the U.S. government's official web portal to all federal, state and local government web resources and services.